Time;durP1;ratioP1;P1;durP2;ratioP2;P2;SDS_P1;SDS_P2;PMS_P1;PMS_P2;Temp;Humidity;BMP_temperature;BMP_pressure;BME280_temperature;BME280_humidity;BME280_pressure;Samples;Min_cycle;Max_cycle;Signal;HPM_P1;HPM_P2
2023/05/15 00:04:53;;;;;;;1.00;0.80;;;;;;;17.54;65.35;96344.91;10387061;28;20147;-25
2023/05/15 00:09:53;;;;;;;1.67;0.80;;;;;;;17.57;65.03;96344.06;10398433;28;20291;-26
2023/05/15 00:14:53;;;;;;;2.63;0.93;;;;;;;17.53;63.15;96342.38;10381993;28;20046;-26
2023/05/15 00:19:56;;;;;;;1.27;0.73;;;;;;;17.50;61.60;96334.81;10381279;28;20521;-26
2023/05/15 00:24:58;;;;;;;1.45;0.93;;;;;;;17.47;61.25;96339.84;10382594;28;20384;-25
2023/05/15 00:29:58;;;;;;;1.10;0.82;;;;;;;17.46;60.98;96341.56;10379577;28;20030;-26
2023/05/15 00:34:59;;;;;;;0.87;0.60;;;;;;;17.47;60.56;96344.91;10368072;28;20034;-26
2023/05/15 00:39:59;;;;;;;1.10;0.60;;;;;;;17.47;60.38;96344.91;10390375;28;20413;-26
2023/05/15 00:45:01;;;;;;;0.50;0.47;;;;;;;17.45;60.23;96344.94;10377016;28;20112;-25
2023/05/15 00:50:02;;;;;;;1.13;0.80;;;;;;;17.44;60.22;96338.19;10360658;28;20030;-26
2023/05/15 00:55:03;;;;;;;0.90;0.80;;;;;;;17.48;64.52;96339.03;10376008;28;20103;-26
2023/05/15 01:00:09;;;;;;;1.33;0.65;;;;;;;17.51;66.41;96339.00;10386370;28;20034;-25
2023/05/15 01:05:10;;;;;;;1.80;0.93;;;;;;;17.51;65.67;96344.06;10382410;28;20109;-26
2023/05/15 01:10:11;;;;;;;1.58;0.77;;;;;;;17.54;64.45;96359.25;10397826;28;20637;-26
2023/05/15 01:15:12;;;;;;;0.60;0.60;;;;;;;17.51;64.08;96356.72;10375186;28;20034;-26
2023/05/15 01:20:16;;;;;;;0.93;0.77;;;;;;;17.49;62.25;96350.84;10378471;28;20428;-25
2023/05/15 01:25:44;;;;;;;1.02;0.80;;;;;;;17.46;61.44;96340.69;10385797;28;20136;-26
2023/05/15 01:30:47;;;;;;;2.63;1.33;;;;;;;17.43;60.94;96325.53;10381273;28;20458;-26
2023/05/15 01:36:20;;;;;;;1.88;0.90;;;;;;;17.45;60.84;96341.56;10389840;28;20508;-26
2023/05/15 01:41:25;;;;;;;1.27;0.70;;;;;;;17.42;60.56;96339.03;10358532;28;20084;-25
2023/05/15 01:46:28;;;;;;;0.80;0.80;;;;;;;17.43;60.33;96340.72;10374235;28;20041;-26
2023/05/15 01:51:30;;;;;;;1.80;0.82;;;;;;;17.42;60.48;96344.09;10377288;28;20057;-26
2023/05/15 01:56:31;;;;;;;0.80;0.80;;;;;;;17.46;65.72;96344.09;10368940;28;20101;-25
2023/05/15 02:01:33;;;;;;;0.70;0.70;;;;;;;17.48;66.01;96339.84;10353831;28;20041;-25
2023/05/15 02:06:34;;;;;;;1.77;0.90;;;;;;;17.51;65.78;96349.97;10373262;28;20026;-26
2023/05/15 02:11:35;;;;;;;1.48;0.80;;;;;;;17.51;64.10;96339.00;10392730;28;20038;-26
2023/05/15 02:16:36;;;;;;;0.90;0.65;;;;;;;17.48;63.91;96333.97;10357256;28;20502;-26
2023/05/15 02:21:37;;;;;;;1.50;0.90;;;;;;;17.46;62.10;96333.09;10353247;28;20037;-26
2023/05/15 02:27:18;;;;;;;0.90;0.70;;;;;;;17.43;61.36;96326.41;10374016;28;20084;-26
2023/05/15 02:32:32;;;;;;;1.13;1.05;;;;;;;17.42;60.90;96318.78;10383127;28;20402;-25
2023/05/15 02:37:37;;;;;;;0.88;0.77;;;;;;;17.42;60.53;96323.84;10382884;28;20917;-25
2023/05/15 02:42:39;;;;;;;1.33;0.70;;;;;;;17.39;60.71;96313.72;10357902;28;20038;-25
2023/05/15 02:47:41;;;;;;;2.78;0.50;;;;;;;17.40;60.49;96315.44;10368754;28;20069;-26
2023/05/15 02:52:41;;;;;;;1.95;0.70;;;;;;;17.40;60.27;96325.56;10353971;28;20109;-26
2023/05/15 02:57:42;;;;;;;2.25;0.68;;;;;;;17.43;65.83;96320.47;10393635;28;20042;-25
2023/05/15 03:02:42;;;;;;;1.17;0.80;;;;;;;17.44;65.06;96325.53;10364990;28;20405;-25
2023/05/15 03:07:42;;;;;;;2.00;0.80;;;;;;;17.47;65.51;96317.06;10357589;28;20486;-25
2023/05/15 03:12:43;;;;;;;1.17;0.93;;;;;;;17.48;63.81;96313.72;10382964;28;20616;-25
2023/05/15 03:17:43;;;;;;;0.93;0.83;;;;;;;17.45;63.79;96313.72;10367704;28;20429;-24
2023/05/15 03:22:43;;;;;;;0.90;0.57;;;;;;;17.44;63.06;96309.50;10387968;28;20299;-25
2023/05/15 03:27:44;;;;;;;1.53;1.00;;;;;;;17.42;61.73;96303.63;10361003;28;20037;-26
2023/05/15 03:32:44;;;;;;;0.85;0.50;;;;;;;17.40;61.28;96313.72;10363558;28;20030;-25
2023/05/15 03:37:45;;;;;;;0.73;0.40;;;;;;;17.39;60.92;96309.50;10390454;28;20034;-25
2023/05/15 03:42:45;;;;;;;0.73;0.60;;;;;;;17.40;60.57;96315.44;10382418;28;20406;-26
2023/05/15 03:47:47;;;;;;;0.63;0.60;;;;;;;17.39;60.54;96309.50;10388299;28;20380;-26
2023/05/15 03:52:47;;;;;;;0.70;0.60;;;;;;;17.38;60.70;96307.84;10381814;28;20033;-25
2023/05/15 03:57:48;;;;;;;1.80;0.70;;;;;;;17.40;62.35;96307.84;10385707;28;20022;-26
2023/05/15 04:02:48;;;;;;;0.68;0.60;;;;;;;17.41;64.62;96310.34;10374454;28;20410;-25
2023/05/15 04:07:49;;;;;;;2.33;0.67;;;;;;;17.43;64.65;96308.69;10380510;28;20576;-25
2023/05/15 04:12:50;;;;;;;1.48;0.85;;;;;;;17.44;64.26;96307.81;10383369;28;20112;-25
2023/05/15 04:17:52;;;;;;;0.85;0.85;;;;;;;17.41;62.01;96307.00;10398669;28;20091;-25
2023/05/15 04:22:53;;;;;;;0.80;0.80;;;;;;;17.41;61.20;96312.88;10386660;28;20032;-26
2023/05/15 04:27:53;;;;;;;0.65;0.60;;;;;;;17.41;60.78;96315.41;10380511;28;20033;-25
2023/05/15 04:32:54;;;;;;;0.93;0.60;;;;;;;17.41;60.38;96327.22;10387723;28;20088;-25
2023/05/15 04:37:54;;;;;;;1.88;1.02;;;;;;;17.41;63.54;96323.00;10371036;28;20034;-25
2023/05/15 04:42:55;;;;;;;3.00;0.50;;;;;;;17.39;60.25;96313.72;10385998;28;20038;-25
2023/05/15 04:47:55;;;;;;;1.13;0.88;;;;;;;17.14;62.95;96312.06;10387233;28;20292;-25
2023/05/15 04:52:56;;;;;;;3.80;1.00;;;;;;;17.14;61.76;96322.19;10391039;28;20036;-26
2023/05/15 04:57:56;;;;;;;6.07;3.05;;;;;;;17.20;61.23;96324.69;10372711;28;20033;-25
2023/05/15 05:02:57;;;;;;;5.88;1.65;;;;;;;17.32;63.65;96335.63;10379535;28;20038;-25
2023/05/15 05:07:57;;;;;;;11.37;1.80;;;;;;;17.26;60.70;96329.75;10378745;28;20034;-25
2023/05/15 05:13:00;;;;;;;8.90;1.20;;;;;;;17.30;62.92;96339.88;10361265;28;20038;-25
2023/05/15 05:18:00;;;;;;;2.85;1.00;;;;;;;17.36;61.67;96339.91;10380039;28;20287;-25
2023/05/15 05:23:00;;;;;;;3.67;1.17;;;;;;;17.34;60.49;96333.13;10389076;28;20049;-25
2023/05/15 05:28:01;;;;;;;4.20;1.07;;;;;;;17.35;60.49;96342.38;10377640;28;20022;-26
2023/05/15 05:33:03;;;;;;;5.70;1.40;;;;;;;16.97;60.09;96339.03;10382783;28;20026;-26
2023/05/15 05:38:03;;;;;;;6.43;1.33;;;;;;;17.10;60.00;96333.16;10379425;28;20037;-25
2023/05/15 05:43:05;;;;;;;5.83;1.30;;;;;;;17.20;59.95;96324.69;10380695;28;20033;-26
2023/05/15 05:48:05;;;;;;;5.03;1.67;;;;;;;17.26;59.91;96327.22;10378286;28;20033;-25
2023/05/15 05:53:05;;;;;;;2.23;1.00;;;;;;;17.28;59.50;96315.41;10374315;28;20048;-25
2023/05/15 05:58:06;;;;;;;2.40;0.90;;;;;;;17.29;59.81;96327.22;10369009;28;20033;-25
2023/05/15 06:03:06;;;;;;;2.50;0.60;;;;;;;17.29;59.53;96317.94;10385345;28;20486;-26
2023/05/15 06:08:06;;;;;;;2.30;1.20;;;;;;;17.33;62.71;96323.84;10389716;28;20284;-25
2023/05/15 06:13:07;;;;;;;4.00;1.02;;;;;;;17.37;62.87;96320.47;10392880;28;20041;-25
2023/05/15 06:18:07;;;;;;;3.70;1.30;;;;;;;17.39;62.30;96318.78;10377912;28;20037;-26
2023/05/15 06:23:08;;;;;;;2.47;0.90;;;;;;;17.40;62.06;96328.09;10389232;28;20469;-26
2023/05/15 06:28:08;;;;;;;3.25;1.00;;;;;;;17.40;60.68;96333.97;10394968;28;20490;-26
2023/05/15 06:33:09;;;;;;;1.63;0.80;;;;;;;17.39;60.55;96327.22;10374518;28;20049;-26
2023/05/15 06:38:09;;;;;;;1.40;0.85;;;;;;;17.42;60.41;96331.44;10377866;28;20440;-26
2023/05/15 06:43:09;;;;;;;1.53;0.80;;;;;;;17.42;60.11;96323.84;10389465;28;20572;-25
2023/05/15 06:48:10;;;;;;;1.50;0.70;;;;;;;17.41;60.15;96322.19;10374063;28;20393;-25
2023/05/15 06:53:10;;;;;;;1.63;0.90;;;;;;;17.44;59.78;96337.34;10386121;28;20475;-26
2023/05/15 06:58:11;;;;;;;1.30;0.77;;;;;;;17.43;60.16;96340.72;10375693;28;20350;-25
2023/05/15 07:03:13;;;;;;;1.10;0.70;;;;;;;17.43;59.88;96339.03;10382772;28;20645;-26
2023/05/15 07:08:13;;;;;;;2.20;0.98;;;;;;;17.43;61.19;96340.72;10372682;28;20400;-26
2023/05/15 07:13:17;;;;;;;1.83;1.00;;;;;;;17.43;62.53;96339.03;10375138;28;20505;-26
2023/05/15 07:18:17;;;;;;;1.67;0.63;;;;;;;17.41;62.98;96338.19;10372642;28;20033;-25
2023/05/15 07:23:17;;;;;;;2.30;0.80;;;;;;;17.44;62.02;96343.25;10368553;28;20034;-26
2023/05/15 07:28:18;;;;;;;1.47;0.90;;;;;;;17.46;61.44;96345.75;10374932;28;20033;-25
2023/05/15 07:33:18;;;;;;;1.87;1.00;;;;;;;17.43;60.54;96338.19;10374765;28;20030;-25
2023/05/15 07:38:18;;;;;;;1.73;1.00;;;;;;;17.44;61.48;96342.41;10380587;28;20333;-25
2023/05/15 07:43:19;;;;;;;1.00;0.70;;;;;;;17.43;60.00;96336.50;10378033;28;20029;-26
2023/05/15 07:48:19;;;;;;;1.83;0.73;;;;;;;17.43;59.68;96343.25;10383186;28;20124;-25
2023/05/15 07:53:20;;;;;;;2.17;0.65;;;;;;;17.42;59.60;96329.75;10384443;28;20512;-25
2023/05/15 07:58:22;;;;;;;0.70;0.55;;;;;;;17.41;59.59;96332.28;10383471;28;20034;-25
2023/05/15 08:03:22;;;;;;;1.38;0.70;;;;;;;17.39;59.17;96322.16;10387412;28;20029;-25
2023/05/15 08:08:22;;;;;;;0.97;0.60;;;;;;;17.41;59.63;96328.06;10381726;28;20457;-25
2023/05/15 08:13:23;;;;;;;1.93;1.07;;;;;;;17.44;62.05;96327.22;10389368;28;20061;-26
2023/05/15 08:18:23;;;;;;;1.37;0.87;;;;;;;17.43;62.58;96330.59;10379360;28;20032;-25
2023/05/15 08:23:23;;;;;;;1.95;0.88;;;;;;;17.46;62.48;96333.09;10388804;28;20041;-25
2023/05/15 08:28:24;;;;;;;0.70;0.40;;;;;;;17.46;61.86;96338.16;10396334;28;20026;-26
2023/05/15 08:33:26;;;;;;;0.70;0.47;;;;;;;17.44;59.61;96323.00;10386119;28;20044;-25
2023/05/15 08:38:26;;;;;;;1.98;1.38;;;;;;;17.42;60.11;96318.78;10380685;28;20109;-25
2023/05/15 08:43:30;;;;;;;1.03;0.57;;;;;;;17.41;59.54;96328.06;10380014;28;20108;-26
2023/05/15 08:48:35;;;;;;;1.70;0.65;;;;;;;17.42;59.47;96321.31;10370770;28;20072;-25
2023/05/15 08:53:37;;;;;;;1.05;0.70;;;;;;;17.42;59.46;96321.31;10374617;28;20033;-25
2023/05/15 08:58:37;;;;;;;1.15;0.47;;;;;;;17.35;59.40;96302.75;10395736;28;20417;-26
2023/05/15 09:03:38;;;;;;;1.48;0.63;;;;;;;17.41;59.39;96322.19;10371876;28;20044;-26
2023/05/15 09:08:40;;;;;;;0.60;0.60;;;;;;;17.42;59.39;96314.56;10389657;28;20038;-26
2023/05/15 09:13:40;;;;;;;0.65;0.50;;;;;;;17.40;59.16;96311.19;10377848;28;20037;-26
2023/05/15 09:18:42;;;;;;;1.40;0.80;;;;;;;17.43;62.38;96307.81;10378646;28;20502;-25
2023/05/15 09:23:43;;;;;;;1.30;0.80;;;;;;;17.44;62.71;96296.84;10392785;28;20033;-25
2023/05/15 09:28:43;;;;;;;1.43;0.90;;;;;;;17.47;62.58;96306.94;10377054;28;20072;-26
2023/05/15 09:33:44;;;;;;;1.50;0.70;;;;;;;17.45;60.45;96290.94;10387095;28;20033;-25
2023/05/15 09:38:47;;;;;;;0.57;0.57;;;;;;;17.43;59.53;96302.75;10384841;28;20414;-26
2023/05/15 09:43:48;;;;;;;0.85;0.55;;;;;;;17.42;59.53;96298.56;10391117;28;20030;-25
2023/05/15 09:48:53;;;;;;;0.57;0.50;;;;;;;17.42;59.54;96294.31;10394027;28;20068;-25
2023/05/15 09:53:54;;;;;;;0.70;0.70;;;;;;;17.41;59.35;96297.69;10368307;28;20053;-26
2023/05/15 09:58:56;;;;;;;0.70;0.60;;;;;;;17.41;59.40;96296.88;10375856;28;20045;-26
2023/05/15 10:04:00;;;;;;;0.40;0.40;;;;;;;17.41;59.23;96296.88;10371307;28;20034;-25
2023/05/15 10:09:02;;;;;;;0.70;0.50;;;;;;;17.41;59.19;96302.75;10378110;28;20047;-25
2023/05/15 10:14:05;;;;;;;0.70;0.50;;;;;;;17.40;59.29;96282.53;10388673;28;20060;-25
2023/05/15 10:19:08;;;;;;;0.75;0.65;;;;;;;17.42;61.10;96278.31;10380151;28;20514;-25
2023/05/15 10:24:10;;;;;;;2.30;0.80;;;;;;;17.44;62.70;96269.00;10385353;28;20042;-25
2023/05/15 10:29:13;;;;;;;1.15;0.70;;;;;;;17.44;62.79;96257.22;10371451;28;20030;-25
2023/05/15 10:34:14;;;;;;;0.90;0.60;;;;;;;17.47;62.51;96253.81;10381596;28;20033;-25
2023/05/15 10:39:15;;;;;;;0.73;0.60;;;;;;;17.44;59.99;96251.31;10378424;28;20113;-25
2023/05/15 10:44:17;;;;;;;0.90;0.73;;;;;;;17.41;60.04;96246.25;10392330;28;20322;-25
2023/05/15 10:49:17;;;;;;;0.60;0.60;;;;;;;17.41;60.47;96241.19;10388579;28;20029;-25
2023/05/15 10:54:18;;;;;;;9.93;1.47;;;;;;;17.40;60.28;96239.53;10375710;28;20033;-24
2023/05/15 10:59:18;;;;;;;24.27;1.85;;;;;;;17.44;60.56;96241.19;10376679;28;20494;-25
2023/05/15 11:04:22;;;;;;;10.32;1.40;;;;;;;17.42;60.33;96230.22;10374726;28;20052;-25
2023/05/15 11:09:37;;;;;;;4.95;1.40;;;;;;;17.42;59.71;96220.09;10371192;28;20053;-25
2023/05/15 11:14:42;;;;;;;5.18;1.23;;;;;;;17.41;59.60;96220.97;10367254;28;20041;-24
2023/05/15 11:19:48;;;;;;;7.13;1.25;;;;;;;17.42;59.82;96218.41;10381312;28;20108;-26
2023/05/15 11:25:00;;;;;;;3.47;1.25;;;;;;;17.44;62.52;96208.28;10391465;28;20053;-25
2023/05/15 11:30:21;;;;;;;4.32;1.30;;;;;;;17.46;63.52;96216.69;10359674;28;20124;-25
2023/05/15 11:35:27;;;;;;;2.25;1.67;;;;;;;17.46;63.30;96204.91;10383354;28;20494;-25
2023/05/15 11:40:29;;;;;;;1.55;1.13;;;;;;;17.47;63.27;96210.78;10382122;28;20494;-25
2023/05/15 11:45:37;;;;;;;2.80;1.10;;;;;;;17.43;59.93;96206.59;10383470;28;20062;-25
2023/05/15 11:50:37;;;;;;;2.50;1.10;;;;;;;17.41;59.84;96195.66;10372655;28;20041;-25
2023/05/15 11:55:40;;;;;;;2.65;1.15;;;;;;;17.41;59.78;96190.59;10387941;28;20036;-25
2023/05/15 12:00:42;;;;;;;2.70;1.38;;;;;;;17.41;60.15;96193.13;10381129;28;20045;-25
2023/05/15 12:05:43;;;;;;;2.92;1.52;;;;;;;17.43;60.04;96188.88;10381117;28;20033;-25
2023/05/15 12:10:44;;;;;;;5.30;1.80;;;;;;;17.43;60.14;96187.22;10389458;28;20157;-25
2023/05/15 12:15:45;;;;;;;5.35;2.03;;;;;;;17.46;63.36;96174.53;10387438;28;20045;-25
2023/05/15 12:20:45;;;;;;;4.65;1.42;;;;;;;17.44;59.79;96181.31;10370722;28;20046;-26
2023/05/15 12:25:47;;;;;;;8.87;4.03;;;;;;;17.43;59.60;96188.88;10387840;28;20646;-25
2023/05/15 12:30:51;;;;;;;4.28;1.38;;;;;;;17.46;63.14;96182.13;10385864;28;20049;-25
2023/05/15 12:35:55;;;;;;;7.95;1.50;;;;;;;17.45;64.15;96167.78;10380272;28;20087;-25
2023/05/15 12:40:56;;;;;;;6.53;1.85;;;;;;;17.48;63.89;96170.31;10379292;28;20411;-25
2023/05/15 12:45:57;;;;;;;4.15;1.80;;;;;;;17.48;63.74;96166.94;10385912;28;20061;-25
2023/05/15 12:51:04;;;;;;;4.88;2.88;;;;;;;17.45;60.69;96167.78;10370813;28;20129;-26
2023/05/15 12:56:05;;;;;;;6.97;2.15;;;;;;;17.44;60.30;96165.25;10377324;28;20382;-25
2023/05/15 13:01:06;;;;;;;4.60;2.17;;;;;;;17.45;60.27;96172.84;10365382;28;20042;-25
2023/05/15 13:06:09;;;;;;;3.50;1.67;;;;;;;17.45;60.22;96164.41;10376245;28;20480;-24
2023/05/15 13:11:14;;;;;;;3.70;1.60;;;;;;;17.43;60.16;96168.66;10365096;28;20045;-24
2023/05/15 13:16:28;;;;;;;2.67;1.60;;;;;;;17.39;59.85;96151.78;10381357;28;20486;-26
2023/05/15 13:21:28;;;;;;;5.75;1.77;;;;;;;17.41;59.53;96155.16;10371267;28;20038;-25
2023/05/15 13:26:29;;;;;;;3.50;1.67;;;;;;;17.41;59.95;96165.28;10382087;28;20506;-25
2023/05/15 13:31:29;;;;;;;2.97;1.23;;;;;;;17.41;59.70;96177.94;10370392;28;20042;-25
2023/05/15 13:36:29;;;;;;;8.77;2.33;;;;;;;17.45;63.75;96174.53;10380402;28;20384;-26
2023/05/15 13:41:30;;;;;;;5.20;2.33;;;;;;;17.47;64.28;96165.25;10375966;28;20383;-25
2023/05/15 13:46:30;;;;;;;5.30;2.50;;;;;;;17.48;62.81;96166.94;10374452;28;20033;-25
2023/05/15 13:51:30;;;;;;;2.80;1.50;;;;;;;17.47;61.90;96162.72;10369253;28;20038;-25
2023/05/15 13:56:31;;;;;;;5.80;1.63;;;;;;;17.45;61.50;96151.75;10366702;28;20045;-26
2023/05/15 14:01:31;;;;;;;5.00;1.87;;;;;;;17.45;61.37;96146.69;10380974;28;20409;-25
2023/05/15 14:06:31;;;;;;;1.77;1.33;;;;;;;17.43;61.26;96148.41;10382107;28;20030;-25
2023/05/15 14:11:32;;;;;;;3.13;2.13;;;;;;;17.43;61.83;96138.28;10390407;28;20029;-25
2023/05/15 14:16:33;;;;;;;4.95;1.23;;;;;;;17.44;60.97;96147.56;10397461;28;20350;-26
2023/05/15 14:21:33;;;;;;;5.10;2.00;;;;;;;17.43;60.80;96143.34;10369113;28;20148;-25
2023/05/15 14:26:33;;;;;;;5.43;1.60;;;;;;;17.44;60.91;96145.03;10391930;28;20030;-24
2023/05/15 14:31:34;;;;;;;4.83;1.47;;;;;;;17.44;60.97;96155.13;10388697;28;20660;-25
2023/05/15 14:36:34;;;;;;;2.57;1.60;;;;;;;17.45;60.99;96156.81;10384265;28;20297;-24
2023/05/15 14:41:34;;;;;;;3.37;2.17;;;;;;;17.49;63.20;96158.50;10381962;28;20111;-25
2023/05/15 14:46:36;;;;;;;4.20;2.30;;;;;;;17.50;63.02;96165.25;10367366;28;20033;-25
2023/05/15 14:51:37;;;;;;;4.55;2.20;;;;;;;17.52;62.83;96173.66;10383079;28;20022;-25
2023/05/15 14:56:37;;;;;;;3.07;1.93;;;;;;;17.50;62.55;96196.44;10390067;28;20037;-25
2023/05/15 15:01:37;;;;;;;2.87;2.00;;;;;;;17.45;62.08;96204.91;10376711;28;20292;-25
2023/05/15 15:06:37;;;;;;;1.80;1.50;;;;;;;17.45;61.14;96213.34;10391064;28;20510;-25
2023/05/15 15:11:38;;;;;;;5.23;2.00;;;;;;;17.46;61.88;96229.34;10366159;28;20042;-26
2023/05/15 15:16:38;;;;;;;2.33;1.50;;;;;;;17.43;60.79;96234.44;10365725;28;20040;-26
2023/05/15 15:21:39;;;;;;;2.83;1.40;;;;;;;17.43;60.48;96244.56;10373733;28;20042;-26
2023/05/15 15:26:40;;;;;;;2.80;1.42;;;;;;;17.41;60.54;96249.63;10372186;28;20293;-25
2023/05/15 15:31:40;;;;;;;2.15;1.20;;;;;;;17.41;60.42;96262.28;10378927;28;20041;-26
2023/05/15 15:36:42;;;;;;;1.80;1.13;;;;;;;17.40;60.35;96259.75;10376243;28;20085;-26
2023/05/15 15:41:42;;;;;;;1.63;1.15;;;;;;;17.39;60.30;96250.47;10365825;28;20698;-25
2023/05/15 15:46:43;;;;;;;2.70;2.20;;;;;;;17.45;62.91;96247.91;10381419;28;20037;-25
2023/05/15 15:51:43;;;;;;;4.33;2.20;;;;;;;17.48;63.04;96251.28;10387558;28;20333;-25
2023/05/15 15:56:43;;;;;;;2.70;2.10;;;;;;;17.49;63.17;96245.38;10374581;28;20037;-25
2023/05/15 16:01:44;;;;;;;7.10;3.33;;;;;;;17.49;62.24;96244.53;10378886;28;20033;-25
2023/05/15 16:06:44;;;;;;;4.60;2.65;;;;;;;17.42;61.79;96242.88;10378630;28;20330;-26
2023/05/15 16:11:45;;;;;;;7.53;4.15;;;;;;;17.42;61.48;96246.22;10381967;28;20030;-25
2023/05/15 16:16:45;;;;;;;3.28;2.97;;;;;;;17.43;60.61;96239.50;10391883;28;20034;-25
2023/05/15 16:21:47;;;;;;;3.00;2.70;;;;;;;17.43;60.40;96231.91;10373894;28;20049;-26
2023/05/15 16:26:47;;;;;;;20.17;11.63;;;;;;;17.48;63.76;96237.81;10388374;28;20296;-25
2023/05/15 16:31:48;;;;;;;15.83;11.67;;;;;;;17.49;64.60;96244.53;10379424;28;20040;-25
2023/05/15 16:36:48;;;;;;;14.68;9.90;;;;;;;17.52;64.51;96244.53;10371785;28;20498;-25
2023/05/15 16:41:48;;;;;;;9.43;4.27;;;;;;;17.47;61.22;96241.16;10386445;28;20440;-25
2023/05/15 16:46:49;;;;;;;10.07;3.77;;;;;;;17.44;60.43;96244.56;10377906;28;20042;-25
2023/05/15 16:51:49;;;;;;;4.90;4.05;;;;;;;17.43;61.33;96239.50;10382112;28;20129;-25
2023/05/15 16:56:50;;;;;;;5.30;3.80;;;;;;;17.42;60.55;96235.28;10377863;28;20061;-26
2023/05/15 17:01:52;;;;;;;5.27;4.30;;;;;;;17.42;60.50;96233.59;10371115;28;20085;-25
2023/05/15 17:06:52;;;;;;;18.80;8.52;;;;;;;17.47;63.85;96236.09;10387406;28;20034;-26
2023/05/15 17:11:53;;;;;;;13.57;7.97;;;;;;;17.53;65.32;96239.47;10384942;28;20547;-26
2023/05/15 17:16:53;;;;;;;11.93;7.50;;;;;;;17.55;64.97;96247.03;10373469;28;20028;-25
2023/05/15 17:21:53;;;;;;;12.07;4.63;;;;;;;17.51;61.32;96252.97;10377961;28;20128;-25
2023/05/15 17:26:54;;;;;;;7.30;3.75;;;;;;;17.50;60.27;96266.47;10379597;28;20067;-25
2023/05/15 17:31:54;;;;;;;8.13;4.93;;;;;;;17.49;60.15;96272.38;10397322;28;20040;-26
2023/05/15 17:36:55;;;;;;;9.47;4.47;;;;;;;17.46;60.52;96267.31;10384924;28;20043;-26
2023/05/15 17:41:55;;;;;;;6.38;3.83;;;;;;;17.45;60.06;96280.81;10387943;28;20418;-25
2023/05/15 17:46:57;;;;;;;7.43;3.87;;;;;;;17.43;60.45;96285.91;10373890;28;20030;-25
2023/05/15 17:51:57;;;;;;;8.90;6.30;;;;;;;17.46;63.04;96288.41;10373570;28;20195;-25
2023/05/15 17:56:57;;;;;;;14.47;7.30;;;;;;;17.50;64.75;96300.19;10383862;28;20041;-24
2023/05/15 18:01:58;;;;;;;9.93;6.00;;;;;;;17.55;64.72;96300.19;10379354;28;20792;-24
2023/05/15 18:06:58;;;;;;;7.15;4.90;;;;;;;17.51;62.34;96293.47;10374859;28;20116;-25
2023/05/15 18:11:58;;;;;;;4.80;3.60;;;;;;;17.45;60.68;96298.53;10370518;28;20064;-25
2023/05/15 18:16:59;;;;;;;4.67;4.17;;;;;;;17.43;60.25;96300.22;10353608;28;20398;-25
2023/05/15 18:22:02;;;;;;;11.50;5.00;;;;;;;17.40;61.77;96315.44;10382533;28;20576;-25
2023/05/15 18:27:02;;;;;;;8.55;4.65;;;;;;;17.39;63.20;96308.66;10362506;28;20292;-25
2023/05/15 18:32:03;;;;;;;4.55;3.38;;;;;;;17.41;60.40;96314.59;10362052;28;20041;-25
2023/05/15 18:37:04;;;;;;;4.53;3.38;;;;;;;17.40;60.21;96315.44;10371945;28;20030;-26
2023/05/15 18:42:05;;;;;;;10.02;5.38;;;;;;;17.42;63.60;96313.72;10371616;28;20457;-26
2023/05/15 18:47:05;;;;;;;9.05;6.20;;;;;;;17.49;65.23;96315.41;10364167;28;20030;-26
2023/05/15 18:52:06;;;;;;;8.43;5.47;;;;;;;17.49;65.01;96313.69;10370934;28;20088;-25
2023/05/15 18:57:07;;;;;;;8.27;4.73;;;;;;;17.49;63.88;96315.41;10370643;28;20288;-25
2023/05/15 19:02:08;;;;;;;6.65;3.78;;;;;;;17.44;60.95;96319.63;10368286;28;20069;-26
2023/05/15 19:07:08;;;;;;;3.78;3.05;;;;;;;17.43;60.39;96326.41;10378815;28;20033;-25
2023/05/15 19:12:09;;;;;;;4.30;3.10;;;;;;;17.39;60.29;96318.78;10364288;28;20643;-25
2023/05/15 19:17:09;;;;;;;6.60;3.23;;;;;;;17.39;60.04;96324.69;10377195;28;20370;-25
2023/05/15 19:22:10;;;;;;;3.95;2.97;;;;;;;17.37;60.33;96330.59;10378779;28;20383;-27
2023/05/15 19:27:10;;;;;;;3.23;2.80;;;;;;;17.41;60.66;96337.34;10370220;28;20026;-26
2023/05/15 19:32:10;;;;;;;4.83;2.90;;;;;;;17.42;59.86;96344.09;10361912;28;20033;-26
2023/05/15 19:37:11;;;;;;;11.93;4.87;;;;;;;17.42;64.02;96339.03;10362189;28;20030;-25
2023/05/15 19:42:11;;;;;;;8.93;4.57;;;;;;;17.50;64.88;96342.41;10370172;28;20561;-25
2023/05/15 19:47:12;;;;;;;5.50;4.23;;;;;;;17.52;64.76;96355.88;10384972;28;20042;-25
2023/05/15 19:52:12;;;;;;;5.30;3.40;;;;;;;17.51;61.65;96355.03;10369693;28;20044;-26
2023/05/15 19:57:12;;;;;;;3.38;3.08;;;;;;;17.51;59.91;96359.25;10385240;28;20029;-26
2023/05/15 20:02:13;;;;;;;3.90;3.00;;;;;;;17.52;60.29;96366.00;10371989;28;20398;-25
2023/05/15 20:07:13;;;;;;;5.13;3.35;;;;;;;17.53;63.36;96367.69;10364587;28;20033;-26
2023/05/15 20:12:14;;;;;;;9.23;4.43;;;;;;;17.54;63.71;96379.50;10383045;28;20037;-25
2023/05/15 20:17:15;;;;;;;3.17;2.53;;;;;;;17.53;60.83;96377.81;10378734;28;20045;-26
2023/05/15 20:22:16;;;;;;;7.00;4.32;;;;;;;17.55;63.77;96386.25;10375509;28;20030;-26
2023/05/15 20:27:16;;;;;;;2.90;2.57;;;;;;;17.52;60.89;96382.03;10367429;28;20033;-26
2023/05/15 20:32:17;;;;;;;3.97;3.22;;;;;;;17.54;60.57;96382.03;10377188;28;20038;-25
2023/05/15 20:37:17;;;;;;;8.48;4.10;;;;;;;17.56;64.33;96387.94;10369306;28;20052;-25
2023/05/15 20:42:18;;;;;;;6.57;4.23;;;;;;;17.56;64.98;96398.91;10388365;28;20103;-26
2023/05/15 20:47:18;;;;;;;10.20;4.27;;;;;;;17.56;64.60;96393.84;10398026;28;20033;-25
2023/05/15 20:52:19;;;;;;;6.63;3.45;;;;;;;17.55;63.28;96387.09;10368518;28;20402;-26
2023/05/15 20:57:20;;;;;;;3.63;3.08;;;;;;;17.54;60.63;96394.69;10377109;28;20037;-25
2023/05/15 21:02:20;;;;;;;4.13;3.13;;;;;;;17.53;60.33;96387.94;10392626;28;20033;-25
2023/05/15 21:07:21;;;;;;;7.13;3.03;;;;;;;17.53;60.20;96385.41;10370345;28;20040;-26
2023/05/15 21:12:21;;;;;;;3.63;2.80;;;;;;;17.53;60.07;96387.94;10385725;28;20033;-26
2023/05/15 21:17:21;;;;;;;3.43;2.27;;;;;;;17.52;60.15;96386.25;10378110;28;20080;-26
2023/05/15 21:22:22;;;;;;;5.33;3.90;;;;;;;17.51;60.30;96387.94;10377283;28;20034;-25
2023/05/15 21:27:22;;;;;;;3.63;2.95;;;;;;;17.50;60.19;96378.66;10381666;28;20026;-25
2023/05/15 21:32:23;;;;;;;4.27;2.43;;;;;;;17.51;59.98;96379.50;10395925;28;20026;-25
2023/05/15 21:37:23;;;;;;;5.65;4.05;;;;;;;17.54;64.23;96382.03;10369100;28;20368;-26
2023/05/15 21:42:25;;;;;;;5.43;4.20;;;;;;;17.53;64.85;96385.41;10385501;28;20068;-25
2023/05/15 21:47:25;;;;;;;5.90;3.60;;;;;;;17.56;64.46;96387.94;10369898;28;20065;-25
2023/05/15 21:52:25;;;;;;;4.17;3.40;;;;;;;17.54;62.45;96382.03;10376011;28;20129;-26
2023/05/15 21:57:26;;;;;;;3.77;2.70;;;;;;;17.47;60.35;96377.81;10383493;28;20080;-25
2023/05/15 22:02:26;;;;;;;4.37;3.03;;;;;;;17.51;60.21;96382.03;10376188;28;20458;-25
2023/05/15 22:07:26;;;;;;;3.40;2.60;;;;;;;17.50;60.22;96383.72;10369476;28;20034;-25
2023/05/15 22:12:27;;;;;;;4.30;2.90;;;;;;;17.50;59.88;96378.66;10376607;28;20494;-25
2023/05/15 22:17:29;;;;;;;3.70;2.50;;;;;;;17.49;60.48;96382.03;10383609;28;20048;-25
2023/05/15 22:22:29;;;;;;;3.30;2.55;;;;;;;17.50;60.22;96387.94;10375808;28;20042;-25
2023/05/15 22:27:30;;;;;;;3.03;2.43;;;;;;;17.48;59.73;96385.41;10370275;28;20038;-25
2023/05/15 22:32:31;;;;;;;2.80;2.33;;;;;;;17.48;59.79;96390.47;10372239;28;20042;-25
2023/05/15 22:37:31;;;;;;;3.50;2.53;;;;;;;17.48;59.93;96387.13;10383275;28;20516;-26
2023/05/15 22:42:32;;;;;;;6.60;3.50;;;;;;;17.51;64.49;96382.88;10384146;28;20042;-25
2023/05/15 22:47:32;;;;;;;4.25;3.85;;;;;;;17.52;64.51;96376.13;10366149;28;20030;-25
2023/05/15 22:52:33;;;;;;;5.18;3.30;;;;;;;17.54;64.14;96366.84;10383664;28;20037;-25
2023/05/15 22:57:33;;;;;;;7.70;3.30;;;;;;;17.52;62.94;96360.94;10366529;28;20041;-25
2023/05/15 23:02:35;;;;;;;4.47;2.67;;;;;;;17.49;60.54;96366.03;10385921;28;20296;-25
2023/05/15 23:07:35;;;;;;;3.00;2.67;;;;;;;17.49;60.22;96363.50;10369291;28;20084;-25
2023/05/15 23:12:36;;;;;;;2.97;2.33;;;;;;;17.46;60.21;96355.88;10389544;28;20402;-25
2023/05/15 23:17:36;;;;;;;2.50;2.30;;;;;;;17.46;60.12;96356.75;10390482;28;20034;-26
2023/05/15 23:22:37;;;;;;;2.63;2.15;;;;;;;17.46;60.14;96350.81;10382293;28;20395;-25